createdAt,value
2019-05-12T00:02:10.131Z,7.76
2019-05-12T00:04:40.416Z,7.71
2019-05-12T00:07:10.718Z,7.67
2019-05-12T00:09:40.948Z,7.63
2019-05-12T00:12:11.581Z,7.57
2019-05-12T00:14:41.916Z,7.50
2019-05-12T00:17:12.169Z,7.40
2019-05-12T00:19:42.590Z,7.41
2019-05-12T00:22:15.080Z,7.35
2019-05-12T00:24:47.758Z,7.29
2019-05-12T00:27:20.143Z,7.24
2019-05-12T00:29:50.567Z,7.21
2019-05-12T00:32:20.940Z,7.14
2019-05-12T00:34:51.534Z,7.08
2019-05-12T00:37:21.963Z,7.04
2019-05-12T00:39:52.319Z,6.99
2019-05-12T00:42:22.721Z,6.95
2019-05-12T00:44:53.090Z,6.89
2019-05-12T00:47:23.546Z,6.85
2019-05-12T00:49:53.897Z,6.81
2019-05-12T00:52:24.352Z,6.81
2019-05-12T00:54:54.769Z,6.84
2019-05-12T00:57:25.217Z,7.22
2019-05-12T00:59:57.916Z,7.28
2019-05-12T01:02:28.658Z,7.40
2019-05-12T01:04:58.947Z,7.50
2019-05-12T01:07:29.102Z,7.57
2019-05-12T01:10:00.990Z,7.64
2019-05-12T01:12:31.626Z,7.69
2019-05-12T01:15:02.012Z,7.77
2019-05-12T01:17:32.555Z,7.80
2019-05-12T01:20:02.936Z,7.92
2019-05-12T01:22:33.527Z,7.91
2019-05-12T01:25:03.902Z,7.90
2019-05-12T01:27:34.298Z,7.87
2019-05-12T01:30:05.579Z,7.82
2019-05-12T01:32:38.304Z,7.78
2019-05-12T01:35:09.973Z,7.70
2019-05-12T01:37:40.532Z,7.60
2019-05-12T01:40:11.150Z,7.50
2019-05-12T01:42:41.589Z,7.40
2019-05-12T01:45:12.379Z,7.30
2019-05-12T01:47:42.625Z,7.23
2019-05-12T01:50:13.143Z,7.16
2019-05-12T01:52:43.500Z,7.10
2019-05-12T01:55:14.146Z,7.04
2019-05-12T01:57:44.359Z,6.98
2019-05-12T02:00:15.308Z,6.94
2019-05-12T02:02:47.876Z,6.89
2019-05-12T02:05:18.316Z,6.87
2019-05-12T02:07:51.271Z,6.83
2019-05-12T02:10:23.073Z,6.82
2019-05-12T02:12:53.364Z,6.78
2019-05-12T02:15:24.171Z,6.75
2019-05-12T02:17:54.296Z,6.73
2019-05-12T02:20:24.605Z,6.66
2019-05-12T02:22:54.732Z,6.67
2019-05-12T02:25:25.013Z,6.64
2019-05-12T02:27:55.167Z,6.62
2019-05-12T02:30:30.421Z,6.61
2019-05-12T02:32:59.794Z,6.59
2019-05-12T02:35:30.024Z,6.58
2019-05-12T02:38:00.242Z,6.55
2019-05-12T02:40:30.534Z,6.52
2019-05-12T02:43:01.368Z,6.47
2019-05-12T02:45:31.499Z,6.45
2019-05-12T02:48:04.777Z,6.42
2019-05-12T02:50:38.317Z,6.38
2019-05-12T02:53:08.713Z,6.33
2019-05-12T02:55:38.974Z,6.29
2019-05-12T02:58:10.703Z,6.24
2019-05-12T03:00:41.315Z,6.20
2019-05-12T03:03:14.745Z,6.15
2019-05-12T03:05:47.062Z,6.15
2019-05-12T03:08:26.590Z,6.12
2019-05-12T03:11:07.381Z,6.09
2019-05-12T03:13:37.503Z,6.03
2019-05-12T03:16:07.645Z,5.97
2019-05-12T03:18:37.817Z,5.94
2019-05-12T03:21:08.109Z,5.90
2019-05-12T03:23:38.235Z,5.88
2019-05-12T03:26:08.391Z,5.84
2019-05-12T03:28:38.533Z,5.74
2019-05-12T03:31:08.969Z,5.78
2019-05-12T03:33:43.961Z,5.77
2019-05-12T03:36:17.233Z,5.74
2019-05-12T03:38:44.743Z,5.71
2019-05-12T03:41:15.082Z,5.68
2019-05-12T03:43:45.352Z,5.68
2019-05-12T03:46:15.841Z,5.67
2019-05-12T03:48:46.044Z,5.63
2019-05-12T03:51:16.908Z,5.60
2019-05-12T03:53:47.417Z,5.58
2019-05-12T03:56:17.910Z,5.56
2019-05-12T03:58:48.463Z,5.55
2019-05-12T04:01:18.810Z,5.57
2019-05-12T04:03:49.109Z,5.67
2019-05-12T04:06:19.188Z,5.79
2019-05-12T04:08:49.526Z,5.94
2019-05-12T04:11:19.868Z,6.14
2019-05-12T04:13:50.006Z,6.33
2019-05-12T04:16:20.359Z,6.48
2019-05-12T04:18:50.573Z,6.62
2019-05-12T04:21:20.874Z,6.73
2019-05-12T04:23:51.167Z,6.75
2019-05-12T04:26:25.048Z,6.76
2019-05-12T04:28:54.853Z,6.72
2019-05-12T04:31:25.323Z,6.68
2019-05-12T04:33:55.698Z,6.66
2019-05-12T04:36:25.958Z,6.66
2019-05-12T04:38:56.174Z,6.68
2019-05-12T04:41:28.685Z,6.71
2019-05-12T04:43:58.911Z,6.74
2019-05-12T04:46:30.367Z,6.78
2019-05-12T04:49:01.045Z,6.84
2019-05-12T04:51:34.667Z,6.92
2019-05-12T04:54:05.821Z,7.00
2019-05-12T04:56:36.378Z,7.04
2019-05-12T04:59:07.105Z,7.14
2019-05-12T05:01:45.082Z,7.21
2019-05-12T05:04:15.537Z,7.28
2019-05-12T05:06:46.879Z,7.41
2019-05-12T05:09:17.559Z,7.50
2019-05-12T05:11:48.152Z,7.60
2019-05-12T05:14:19.177Z,7.72
2019-05-12T05:16:49.733Z,7.81
2019-05-12T05:19:20.384Z,7.92
2019-05-12T05:21:50.935Z,8.00
2019-05-12T05:24:23.398Z,8.14
2019-05-12T05:26:54.110Z,8.24
2019-05-12T05:29:24.710Z,8.35
2019-05-12T05:31:55.238Z,8.44
2019-05-12T05:34:34.125Z,8.57
2019-05-12T05:37:05.186Z,8.65
2019-05-12T05:39:47.988Z,8.79
2019-05-12T05:42:07.884Z,8.90
2019-05-12T05:44:38.669Z,9.05
2019-05-12T05:49:36.041Z,9.34
2019-05-12T05:52:07.608Z,9.48
2019-05-12T05:54:40.182Z,9.60
2019-05-12T05:57:20.085Z,9.87
2019-05-12T05:59:48.800Z,10.19
2019-05-12T06:02:25.542Z,10.49
2019-05-12T06:04:54.166Z,10.61
2019-05-12T06:07:34.935Z,10.69
2019-05-12T06:09:56.416Z,10.78
2019-05-12T06:12:26.842Z,10.89
2019-05-12T06:14:59.791Z,10.98
2019-05-12T06:17:29.597Z,11.09
2019-05-12T06:20:00.119Z,11.19
2019-05-12T06:22:30.760Z,11.52
2019-05-12T06:25:04.515Z,11.61
2019-05-12T06:27:35.749Z,11.69
2019-05-12T06:30:08.164Z,11.77
2019-05-12T06:32:41.118Z,11.83
2019-05-12T06:35:11.263Z,11.96
2019-05-12T06:37:44.118Z,12.06
2019-05-12T06:40:14.262Z,12.16
2019-05-12T06:42:48.397Z,12.27
2019-05-12T06:45:23.494Z,12.30
2019-05-12T06:47:56.065Z,12.18
2019-05-12T06:50:28.614Z,12.26
2019-05-12T06:52:58.487Z,12.38
2019-05-12T06:55:34.523Z,12.29
2019-05-12T06:58:01.190Z,12.18
2019-05-12T07:00:32.656Z,12.34
2019-05-12T07:03:04.241Z,12.52
2019-05-12T07:05:38.295Z,12.90
2019-05-12T07:08:07.799Z,13.25
2019-05-12T07:10:43.384Z,13.50
2019-05-12T07:13:14.801Z,13.77
2019-05-12T07:15:43.920Z,14.03
2019-05-12T07:18:17.833Z,14.30
2019-05-12T07:20:49.632Z,14.65
2019-05-12T07:23:25.095Z,15.06
2019-05-12T07:25:51.691Z,15.21
2019-05-12T07:28:23.719Z,14.96
2019-05-12T07:30:54.621Z,14.76
2019-05-12T07:33:25.035Z,14.63
2019-05-12T07:36:01.478Z,14.63
2019-05-12T07:38:29.295Z,14.70
2019-05-12T07:41:00.842Z,14.92
2019-05-12T07:43:33.761Z,15.18
2019-05-12T07:46:07.279Z,15.43
2019-05-12T07:48:40.161Z,15.65
2019-05-12T07:51:09.722Z,15.79
2019-05-12T07:53:39.909Z,15.42
2019-05-12T07:56:10.126Z,14.93
2019-05-12T07:58:40.958Z,14.11
2019-05-12T08:01:14.407Z,13.24
2019-05-12T08:03:44.331Z,12.50
2019-05-12T08:06:14.618Z,12.00
2019-05-12T08:08:50.902Z,11.71
2019-05-12T08:11:16.788Z,11.65
2019-05-12T08:13:47.141Z,11.63
2019-05-12T08:16:19.626Z,11.61
2019-05-12T08:18:49.319Z,11.60
2019-05-12T08:21:20.710Z,11.63
2019-05-12T08:23:53.362Z,11.74
2019-05-12T08:26:23.946Z,12.06
2019-05-12T08:28:54.503Z,12.39
2019-05-12T08:31:33.121Z,12.79
2019-05-12T08:33:57.607Z,13.20
2019-05-12T08:36:28.174Z,13.48
2019-05-12T08:39:05.402Z,13.89
2019-05-12T08:41:34.123Z,14.26
2019-05-12T08:44:04.813Z,14.63
2019-05-12T08:46:35.007Z,14.93
2019-05-12T08:49:05.553Z,15.35
2019-05-12T08:51:35.902Z,15.86
2019-05-12T08:54:08.259Z,15.91
2019-05-12T08:56:38.691Z,15.57
2019-05-12T08:59:14.368Z,15.11
2019-05-12T09:01:43.693Z,14.90
2019-05-12T09:04:18.143Z,14.77
2019-05-12T09:06:45.250Z,14.63
2019-05-12T09:09:15.603Z,14.58
2019-05-12T09:11:45.902Z,14.62
2019-05-12T09:14:16.578Z,14.68
2019-05-12T09:16:46.900Z,14.69
2019-05-12T09:19:23.876Z,14.61
2019-05-12T09:21:48.861Z,14.58
2019-05-12T09:24:21.968Z,14.55
2019-05-12T09:26:53.690Z,14.55
2019-05-12T09:29:25.142Z,14.48
2019-05-12T09:31:59.234Z,14.44
2019-05-12T09:34:27.099Z,14.43
2019-05-12T09:36:59.666Z,14.71
2019-05-12T09:39:34.052Z,15.31
2019-05-12T09:42:00.829Z,15.91
2019-05-12T09:44:31.076Z,16.32
2019-05-12T09:47:01.368Z,16.43
2019-05-12T09:49:39.051Z,16.31
2019-05-12T09:52:03.715Z,16.15
2019-05-12T09:54:40.773Z,16.01
2019-05-12T09:57:07.241Z,16.22
2019-05-12T09:59:38.100Z,16.30
2019-05-12T10:02:10.527Z,16.27
2019-05-12T10:04:40.588Z,16.38
2019-05-12T10:07:10.812Z,16.87
2019-05-12T10:09:44.089Z,17.17
2019-05-12T10:12:14.187Z,16.88
2019-05-12T10:14:45.761Z,16.43
2019-05-12T10:17:20.212Z,16.22
2019-05-12T10:19:48.494Z,16.29
2019-05-12T10:22:19.812Z,16.88
2019-05-12T10:24:56.072Z,17.59
2019-05-12T10:27:27.209Z,17.65
2019-05-12T10:29:54.257Z,17.39
2019-05-12T10:32:24.507Z,17.04
2019-05-12T10:34:54.732Z,16.63
2019-05-12T10:37:29.170Z,16.57
2019-05-12T10:39:56.797Z,16.69
2019-05-12T10:42:27.000Z,16.94
2019-05-12T10:44:57.242Z,17.08
2019-05-12T10:47:27.402Z,17.38
2019-05-12T10:49:57.476Z,17.90
2019-05-12T10:52:29.532Z,18.21
2019-05-12T10:54:59.414Z,18.48
2019-05-12T10:57:29.711Z,18.60
2019-05-12T10:59:59.866Z,18.44
2019-05-12T11:02:30.665Z,18.07
2019-05-12T11:05:01.135Z,17.56
2019-05-12T11:07:31.236Z,17.15
2019-05-12T11:10:05.090Z,16.93
2019-05-12T11:12:33.378Z,16.94
2019-05-12T11:15:08.372Z,16.86
2019-05-12T11:17:56.511Z,17.07
2019-05-12T11:20:26.663Z,17.62
2019-05-12T11:22:56.807Z,18.33
2019-05-12T11:25:26.927Z,18.83
2019-05-12T11:27:57.196Z,18.74
2019-05-12T11:30:27.363Z,18.37
2019-05-12T11:32:59.713Z,18.11
2019-05-12T11:35:30.208Z,17.97
2019-05-12T11:38:00.315Z,17.86
2019-05-12T11:40:30.590Z,18.09
2019-05-12T11:43:03.538Z,18.68
2019-05-12T11:45:33.858Z,19.21
2019-05-12T11:48:10.145Z,19.57
2019-05-12T11:50:40.394Z,20.11
2019-05-12T11:53:10.271Z,20.53
2019-05-12T11:55:40.490Z,21.01
2019-05-12T11:58:11.704Z,21.33
2019-05-12T12:00:44.560Z,21.61
2019-05-12T12:03:18.188Z,21.82
2019-05-12T12:05:47.675Z,21.70
2019-05-12T12:08:17.729Z,21.24
2019-05-12T12:10:49.287Z,20.73
2019-05-12T12:13:25.675Z,20.59
2019-05-12T12:15:51.808Z,21.12
2019-05-12T12:18:23.537Z,21.20
2019-05-12T12:21:02.332Z,20.92
2019-05-12T12:23:26.143Z,20.64
2019-05-12T12:25:56.487Z,20.55
2019-05-12T12:28:26.557Z,20.16
2019-05-12T12:31:00.299Z,20.61
2019-05-12T12:33:31.073Z,20.58
2019-05-12T12:36:01.048Z,19.99
2019-05-12T12:38:33.140Z,20.11
2019-05-12T12:41:03.847Z,21.01
2019-05-12T12:43:34.169Z,21.96
2019-05-12T12:46:10.759Z,22.53
2019-05-12T12:48:41.235Z,22.69
2019-05-12T12:51:14.697Z,22.79
2019-05-12T12:53:43.856Z,22.06
2019-05-12T12:56:16.250Z,22.58
2019-05-12T12:58:46.229Z,22.63
2019-05-12T13:01:26.906Z,23.26
2019-05-12T13:03:50.145Z,22.87
2019-05-12T13:06:20.853Z,21.80
2019-05-12T13:08:54.228Z,21.43
2019-05-12T13:11:33.139Z,22.53
2019-05-12T13:13:58.230Z,24.57
2019-05-12T13:16:28.673Z,24.64
2019-05-12T13:19:06.149Z,23.19
2019-05-12T13:21:33.523Z,22.71
2019-05-12T13:24:04.031Z,22.20
2019-05-12T13:26:36.645Z,21.09
2019-05-12T13:29:07.554Z,20.56
2019-05-12T13:31:41.017Z,22.02
2019-05-12T13:34:10.524Z,22.78
2019-05-12T13:36:41.109Z,23.02
2019-05-12T13:39:16.201Z,22.55
2019-05-12T13:41:43.942Z,23.36
2019-05-12T13:44:14.676Z,24.16
2019-05-12T13:46:48.867Z,25.41
2019-05-12T13:49:17.953Z,26.45
2019-05-12T13:51:50.293Z,26.89
2019-05-12T13:54:26.149Z,27.73
2019-05-12T13:56:53.502Z,28.59
2019-05-12T13:59:25.497Z,28.79
2019-05-12T14:01:56.367Z,28.57
2019-05-12T14:04:27.782Z,27.79
2019-05-12T14:06:58.345Z,26.28
2019-05-12T14:09:29.184Z,24.74
2019-05-12T14:11:59.825Z,23.62
2019-05-12T14:14:30.648Z,24.81
2019-05-12T14:17:01.048Z,26.30
2019-05-12T14:19:35.636Z,25.93
2019-05-12T14:22:12.907Z,25.42
2019-05-12T14:24:46.439Z,24.95
2019-05-12T14:27:14.250Z,24.90
2019-05-12T14:29:44.780Z,26.16
2019-05-12T14:32:17.365Z,27.46
2019-05-12T14:34:50.982Z,26.88
2019-05-12T14:37:19.942Z,25.85
2019-05-12T14:39:50.574Z,24.62
2019-05-12T14:42:26.202Z,24.42
2019-05-12T14:44:54.094Z,25.13
2019-05-12T14:47:29.752Z,24.66
2019-05-12T14:49:58.505Z,25.17
2019-05-12T14:52:28.999Z,24.79
2019-05-12T14:54:59.614Z,23.72
2019-05-12T14:57:37.318Z,22.60
2019-05-12T15:00:04.027Z,22.11
2019-05-12T15:02:34.495Z,22.63
2019-05-12T15:05:13.871Z,22.60
2019-05-12T15:07:50.637Z,23.55
2019-05-12T15:10:14.925Z,23.50
2019-05-12T15:12:45.515Z,22.78
2019-05-12T15:15:20.647Z,22.10
2019-05-12T15:17:48.312Z,22.45
2019-05-12T15:20:18.788Z,23.34
2019-05-12T15:22:51.800Z,24.05
2019-05-12T15:25:21.840Z,23.10
2019-05-12T15:27:54.246Z,24.30
2019-05-12T15:30:26.789Z,26.46
2019-05-12T15:32:56.647Z,27.14
2019-05-12T15:35:27.023Z,25.28
2019-05-12T15:37:57.486Z,23.34
2019-05-12T15:40:27.999Z,23.63
2019-05-12T15:43:00.395Z,24.91
2019-05-12T15:45:30.275Z,24.32
2019-05-12T15:48:00.444Z,25.91
2019-05-12T15:50:30.669Z,27.74
2019-05-12T15:53:00.900Z,26.97
2019-05-12T15:55:32.838Z,26.13
2019-05-12T15:58:05.518Z,25.85
2019-05-12T16:00:38.124Z,25.87
2019-05-12T16:03:06.787Z,24.46
2019-05-12T16:05:36.953Z,25.55
2019-05-12T16:08:07.205Z,27.38
2019-05-12T16:10:37.283Z,28.43
2019-05-12T16:13:07.479Z,28.79
2019-05-12T16:15:37.618Z,28.84
2019-05-12T16:18:09.972Z,29.14
2019-05-12T16:20:40.081Z,29.78
2019-05-12T16:23:17.121Z,30.48
2019-05-12T16:25:42.782Z,30.91
2019-05-12T16:28:18.584Z,31.77
2019-05-12T16:30:47.349Z,32.14
2019-05-12T16:33:22.077Z,32.63
2019-05-12T16:35:50.941Z,33.09
2019-05-12T16:38:23.484Z,32.99
2019-05-12T16:40:53.946Z,33.23
2019-05-12T16:43:24.163Z,33.84
2019-05-12T16:45:54.355Z,34.54
2019-05-12T16:48:30.361Z,35.04
2019-05-12T16:51:03.339Z,34.32
2019-05-12T16:53:34.160Z,33.51
2019-05-12T16:56:04.423Z,32.27
2019-05-12T16:58:35.441Z,31.00
2019-05-12T17:01:07.064Z,28.71
2019-05-12T17:03:37.227Z,28.58
2019-05-12T17:06:07.479Z,29.65
2019-05-12T17:08:37.759Z,28.84
2019-05-12T17:11:23.273Z,26.45
2019-05-12T17:13:39.857Z,26.80
2019-05-12T17:16:10.162Z,27.84
2019-05-12T17:18:40.320Z,27.95
2019-05-12T17:21:10.707Z,26.36
2019-05-12T17:23:40.861Z,25.49
2019-05-12T17:26:11.077Z,24.68
2019-05-12T17:28:43.476Z,25.65
2019-05-12T17:31:13.176Z,26.76
2019-05-12T17:33:43.320Z,27.47
2019-05-12T17:36:17.693Z,28.10
2019-05-12T17:38:45.504Z,28.12
2019-05-12T17:41:18.039Z,27.96
2019-05-12T17:43:56.588Z,28.85
2019-05-12T17:46:19.494Z,29.58
2019-05-12T17:48:49.581Z,29.12
2019-05-12T17:51:20.433Z,28.82
2019-05-12T17:53:53.875Z,28.25
2019-05-12T17:56:25.268Z,27.97
2019-05-12T17:58:55.576Z,28.81
2019-05-12T18:01:31.357Z,29.38
2019-05-12T18:04:20.467Z,29.65
2019-05-12T18:06:48.753Z,29.41
2019-05-12T18:09:20.215Z,28.07
2019-05-12T18:11:54.337Z,27.66
2019-05-12T18:14:27.318Z,26.79
2019-05-12T18:17:02.927Z,26.33
2019-05-12T18:19:26.444Z,26.55
2019-05-12T18:22:03.211Z,27.07
2019-05-12T18:24:28.532Z,27.36
2019-05-12T18:27:04.130Z,27.20
2019-05-12T18:29:30.771Z,26.94
2019-05-12T18:32:01.120Z,26.92
2019-05-12T18:34:33.859Z,26.78
2019-05-12T18:37:05.388Z,26.59
2019-05-12T18:39:35.424Z,26.48
2019-05-12T18:42:07.138Z,26.26
2019-05-12T18:44:37.454Z,25.79
2019-05-12T18:47:07.726Z,24.30
2019-05-12T18:49:42.063Z,22.56
2019-05-12T18:52:10.296Z,21.01
2019-05-12T18:54:45.582Z,19.79
2019-05-12T18:57:12.743Z,18.81
2019-05-12T18:59:46.076Z,18.00
2019-05-12T19:02:22.764Z,17.26
2019-05-12T19:04:46.948Z,16.70
2019-05-12T19:07:17.024Z,16.24
2019-05-12T19:09:47.412Z,15.83
2019-05-12T19:12:21.611Z,15.46
2019-05-12T19:14:52.507Z,15.10
2019-05-12T19:17:24.155Z,14.71
2019-05-12T19:19:59.824Z,14.41
2019-05-12T19:22:26.431Z,14.16
2019-05-12T19:24:59.986Z,13.92
2019-05-12T19:27:28.526Z,13.67
2019-05-12T19:30:01.256Z,13.46
2019-05-12T19:32:33.604Z,13.28
2019-05-12T19:35:09.646Z,13.08
2019-05-12T19:37:43.064Z,12.88
2019-05-12T19:40:18.903Z,12.68
2019-05-12T19:43:01.841Z,12.50
2019-05-12T19:45:25.277Z,12.37
2019-05-12T19:47:55.793Z,12.21
2019-05-12T19:50:26.960Z,12.13
2019-05-12T19:52:57.522Z,12.02
2019-05-12T19:55:28.432Z,11.91
2019-05-12T19:58:03.162Z,11.81
2019-05-12T20:00:32.927Z,11.66
2019-05-12T20:03:04.464Z,11.52
2019-05-12T20:05:35.536Z,11.39
2019-05-12T20:08:07.290Z,11.23
2019-05-12T20:10:44.666Z,11.12
2019-05-12T20:13:10.000Z,10.99
2019-05-12T20:15:43.158Z,10.88
2019-05-12T20:18:14.695Z,10.79
2019-05-12T20:20:45.393Z,10.68
2019-05-12T20:25:46.703Z,10.57
2019-05-12T20:28:17.550Z,10.45
2019-05-12T20:30:52.356Z,10.35
2019-05-12T20:33:20.454Z,10.26
2019-05-12T20:35:50.919Z,10.17
2019-05-12T20:38:27.235Z,10.19
2019-05-12T20:40:54.259Z,10.08
2019-05-12T20:43:32.366Z,10.00
2019-05-12T20:45:58.394Z,9.94
2019-05-12T20:48:31.080Z,9.88
2019-05-12T20:51:03.348Z,9.80
2019-05-12T20:53:36.592Z,9.74
2019-05-12T20:56:07.228Z,9.68
2019-05-12T20:58:43.568Z,9.61
2019-05-12T21:01:20.215Z,9.54
2019-05-12T21:03:52.302Z,9.50
2019-05-12T21:06:25.575Z,9.43
2019-05-12T21:08:56.656Z,9.37
2019-05-12T21:11:27.391Z,9.31
2019-05-12T21:14:01.029Z,9.27
2019-05-12T21:16:34.721Z,9.22
2019-05-12T21:19:07.439Z,9.13
2019-05-12T21:21:38.457Z,9.07
2019-05-12T21:24:05.470Z,9.01
2019-05-12T21:26:37.862Z,8.96
2019-05-12T21:29:07.725Z,8.90
2019-05-12T21:31:37.814Z,8.85
2019-05-12T21:34:13.195Z,8.81
2019-05-12T21:36:40.086Z,8.75
2019-05-12T21:39:10.703Z,8.69
2019-05-12T21:41:46.377Z,8.64
2019-05-12T21:44:14.121Z,8.60
2019-05-12T21:46:57.286Z,8.55
2019-05-12T21:49:16.501Z,8.51
2019-05-12T21:51:50.575Z,8.46
2019-05-12T21:54:19.200Z,8.41
2019-05-12T21:56:49.590Z,8.36
2019-05-12T21:59:19.852Z,8.34
2019-05-12T22:01:50.253Z,8.29
2019-05-12T22:04:20.596Z,8.25
2019-05-12T22:06:51.261Z,8.22
2019-05-12T22:09:23.988Z,8.18
2019-05-12T22:11:56.371Z,8.13
2019-05-12T22:14:30.326Z,8.09
2019-05-12T22:17:00.147Z,8.05
2019-05-12T22:19:31.235Z,8.00
2019-05-12T22:22:04.353Z,7.94
2019-05-12T22:24:38.812Z,7.89
2019-05-12T22:27:07.218Z,7.84
2019-05-12T22:29:37.518Z,7.81
2019-05-12T22:32:07.754Z,7.79
2019-05-12T22:34:41.945Z,7.73
2019-05-12T22:37:09.962Z,7.71
2019-05-12T22:39:40.370Z,7.67
2019-05-12T22:42:11.487Z,7.64
2019-05-12T22:44:43.794Z,7.58
2019-05-12T22:47:17.532Z,7.54
2019-05-12T22:49:46.123Z,7.49
2019-05-12T22:52:17.490Z,7.44
2019-05-12T22:54:50.990Z,7.39
2019-05-12T22:57:19.694Z,7.33
2019-05-12T22:59:50.032Z,7.27
2019-05-12T23:02:25.395Z,7.21
2019-05-12T23:04:55.002Z,7.17
2019-05-12T23:07:29.735Z,7.13
2019-05-12T23:10:00.592Z,7.10
2019-05-12T23:12:30.160Z,7.06
2019-05-12T23:15:03.014Z,7.00
2019-05-12T23:17:33.853Z,6.95
2019-05-12T23:20:04.864Z,6.89
2019-05-12T23:22:36.802Z,6.86
2019-05-12T23:25:11.491Z,6.81
2019-05-12T23:27:40.447Z,6.80
2019-05-12T23:30:15.166Z,6.77
2019-05-12T23:32:51.333Z,6.74
2019-05-12T23:35:16.035Z,6.73
2019-05-12T23:37:46.400Z,6.69
2019-05-12T23:40:16.840Z,6.66
2019-05-12T23:42:47.155Z,6.64
2019-05-12T23:45:17.649Z,6.64
2019-05-12T23:47:48.059Z,6.62
2019-05-12T23:50:18.529Z,6.61
2019-05-12T23:52:48.913Z,6.58
2019-05-12T23:55:19.355Z,6.56
2019-05-12T23:57:49.690Z,6.52
